sensor_id;sensor_type;location;lat;lon;timestamp;P1;durP1;ratioP1;P2;durP2;ratioP2
60478;SDS011;46321;48.398;11.754;2023-07-16T00:00:32;10.27;;;4.70;;
60478;SDS011;46321;48.398;11.754;2023-07-16T00:02:57;12.82;;;4.68;;
60478;SDS011;46321;48.398;11.754;2023-07-16T00:05:23;9.10;;;5.05;;
60478;SDS011;46321;48.398;11.754;2023-07-16T00:07:48;10.70;;;4.47;;
60478;SDS011;46321;48.398;11.754;2023-07-16T00:10:13;9.05;;;5.00;;
60478;SDS011;46321;48.398;11.754;2023-07-16T00:12:38;7.88;;;4.30;;
60478;SDS011;46321;48.398;11.754;2023-07-16T00:15:04;8.52;;;4.30;;
60478;SDS011;46321;48.398;11.754;2023-07-16T00:17:31;6.07;;;4.10;;
60478;SDS011;46321;48.398;11.754;2023-07-16T00:19:56;4.90;;;3.92;;
60478;SDS011;46321;48.398;11.754;2023-07-16T00:22:21;6.30;;;4.13;;
60478;SDS011;46321;48.398;11.754;2023-07-16T00:24:47;6.83;;;4.37;;
60478;SDS011;46321;48.398;11.754;2023-07-16T00:27:12;6.38;;;4.20;;
60478;SDS011;46321;48.398;11.754;2023-07-16T00:29:37;6.78;;;4.40;;
60478;SDS011;46321;48.398;11.754;2023-07-16T00:32:02;4.93;;;3.93;;
60478;SDS011;46321;48.398;11.754;2023-07-16T00:34:28;6.35;;;4.22;;
60478;SDS011;46321;48.398;11.754;2023-07-16T00:36:53;7.63;;;3.92;;
60478;SDS011;46321;48.398;11.754;2023-07-16T00:39:18;5.68;;;3.90;;
60478;SDS011;46321;48.398;11.754;2023-07-16T00:41:44;9.07;;;4.17;;
60478;SDS011;46321;48.398;11.754;2023-07-16T00:44:09;8.60;;;4.63;;
60478;SDS011;46321;48.398;11.754;2023-07-16T00:46:34;5.13;;;4.20;;
60478;SDS011;46321;48.398;11.754;2023-07-16T00:49:00;7.20;;;4.25;;
60478;SDS011;46321;48.398;11.754;2023-07-16T00:51:26;6.47;;;3.70;;
60478;SDS011;46321;48.398;11.754;2023-07-16T00:53:52;5.22;;;4.10;;
60478;SDS011;46321;48.398;11.754;2023-07-16T00:56:18;5.15;;;3.72;;
60478;SDS011;46321;48.398;11.754;2023-07-16T00:58:44;9.70;;;4.10;;
60478;SDS011;46321;48.398;11.754;2023-07-16T01:01:09;5.70;;;4.25;;
60478;SDS011;46321;48.398;11.754;2023-07-16T01:03:34;6.83;;;4.60;;
60478;SDS011;46321;48.398;11.754;2023-07-16T01:06:03;6.97;;;4.43;;
60478;SDS011;46321;48.398;11.754;2023-07-16T01:08:42;6.40;;;4.35;;
60478;SDS011;46321;48.398;11.754;2023-07-16T01:11:11;7.40;;;4.30;;
60478;SDS011;46321;48.398;11.754;2023-07-16T01:13:37;7.50;;;4.47;;
60478;SDS011;46321;48.398;11.754;2023-07-16T01:16:03;7.55;;;4.32;;
60478;SDS011;46321;48.398;11.754;2023-07-16T01:18:29;5.70;;;4.35;;
60478;SDS011;46321;48.398;11.754;2023-07-16T01:20:54;7.50;;;4.80;;
60478;SDS011;46321;48.398;11.754;2023-07-16T01:23:26;7.03;;;5.20;;
60478;SDS011;46321;48.398;11.754;2023-07-16T01:26:03;6.68;;;4.35;;
60478;SDS011;46321;48.398;11.754;2023-07-16T01:31:32;11.38;;;4.60;;
60478;SDS011;46321;48.398;11.754;2023-07-16T01:33:59;8.43;;;4.45;;
60478;SDS011;46321;48.398;11.754;2023-07-16T01:36:27;7.95;;;4.15;;
60478;SDS011;46321;48.398;11.754;2023-07-16T01:38:53;9.05;;;4.68;;
60478;SDS011;46321;48.398;11.754;2023-07-16T01:41:18;8.52;;;4.65;;
60478;SDS011;46321;48.398;11.754;2023-07-16T01:43:44;8.00;;;4.88;;
60478;SDS011;46321;48.398;11.754;2023-07-16T01:46:09;17.55;;;5.28;;
60478;SDS011;46321;48.398;11.754;2023-07-16T01:48:35;7.38;;;4.80;;
60478;SDS011;46321;48.398;11.754;2023-07-16T01:51:02;7.28;;;4.65;;
60478;SDS011;46321;48.398;11.754;2023-07-16T01:53:28;6.32;;;4.53;;
60478;SDS011;46321;48.398;11.754;2023-07-16T01:55:53;9.32;;;4.45;;
60478;SDS011;46321;48.398;11.754;2023-07-16T01:58:19;7.95;;;4.78;;
60478;SDS011;46321;48.398;11.754;2023-07-16T02:00:44;8.00;;;4.78;;
60478;SDS011;46321;48.398;11.754;2023-07-16T02:03:09;7.23;;;4.87;;
60478;SDS011;46321;48.398;11.754;2023-07-16T02:05:34;7.40;;;4.70;;
60478;SDS011;46321;48.398;11.754;2023-07-16T02:08:00;7.23;;;4.93;;
60478;SDS011;46321;48.398;11.754;2023-07-16T02:10:25;7.25;;;4.40;;
60478;SDS011;46321;48.398;11.754;2023-07-16T02:12:51;6.60;;;4.50;;
60478;SDS011;46321;48.398;11.754;2023-07-16T02:15:16;12.48;;;4.80;;
60478;SDS011;46321;48.398;11.754;2023-07-16T02:17:42;7.13;;;4.97;;
60478;SDS011;46321;48.398;11.754;2023-07-16T02:20:08;6.07;;;4.70;;
60478;SDS011;46321;48.398;11.754;2023-07-16T02:22:35;6.72;;;4.78;;
60478;SDS011;46321;48.398;11.754;2023-07-16T02:25:01;8.70;;;4.93;;
60478;SDS011;46321;48.398;11.754;2023-07-16T02:27:27;6.75;;;4.75;;
60478;SDS011;46321;48.398;11.754;2023-07-16T02:29:52;6.38;;;5.05;;
60478;SDS011;46321;48.398;11.754;2023-07-16T02:32:18;7.82;;;4.93;;
60478;SDS011;46321;48.398;11.754;2023-07-16T02:34:43;6.85;;;4.90;;
60478;SDS011;46321;48.398;11.754;2023-07-16T02:37:08;6.20;;;4.40;;
60478;SDS011;46321;48.398;11.754;2023-07-16T02:39:34;8.85;;;4.90;;
60478;SDS011;46321;48.398;11.754;2023-07-16T02:41:59;11.27;;;5.30;;
60478;SDS011;46321;48.398;11.754;2023-07-16T02:44:24;6.93;;;4.90;;
60478;SDS011;46321;48.398;11.754;2023-07-16T02:46:49;9.07;;;5.43;;
60478;SDS011;46321;48.398;11.754;2023-07-16T02:49:15;6.47;;;5.03;;
60478;SDS011;46321;48.398;11.754;2023-07-16T02:51:40;7.10;;;5.43;;
60478;SDS011;46321;48.398;11.754;2023-07-16T02:54:05;6.80;;;5.00;;
60478;SDS011;46321;48.398;11.754;2023-07-16T02:56:31;10.27;;;5.33;;
60478;SDS011;46321;48.398;11.754;2023-07-16T02:58:56;6.93;;;4.63;;
60478;SDS011;46321;48.398;11.754;2023-07-16T03:01:21;8.63;;;5.20;;
60478;SDS011;46321;48.398;11.754;2023-07-16T03:03:46;7.00;;;5.17;;
60478;SDS011;46321;48.398;11.754;2023-07-16T03:06:12;6.53;;;4.63;;
60478;SDS011;46321;48.398;11.754;2023-07-16T03:08:37;9.57;;;5.40;;
60478;SDS011;46321;48.398;11.754;2023-07-16T03:11:02;8.07;;;5.27;;
60478;SDS011;46321;48.398;11.754;2023-07-16T03:13:27;5.43;;;4.60;;
60478;SDS011;46321;48.398;11.754;2023-07-16T03:15:53;5.75;;;4.22;;
60478;SDS011;46321;48.398;11.754;2023-07-16T03:18:18;6.03;;;4.47;;
60478;SDS011;46321;48.398;11.754;2023-07-16T03:20:44;6.38;;;3.90;;
60478;SDS011;46321;48.398;11.754;2023-07-16T03:23:09;3.85;;;3.22;;
60478;SDS011;46321;48.398;11.754;2023-07-16T03:25:34;4.00;;;3.47;;
60478;SDS011;46321;48.398;11.754;2023-07-16T03:28:00;7.35;;;3.03;;
60478;SDS011;46321;48.398;11.754;2023-07-16T03:30:25;3.45;;;2.60;;
60478;SDS011;46321;48.398;11.754;2023-07-16T03:32:50;3.30;;;2.47;;
60478;SDS011;46321;48.398;11.754;2023-07-16T03:35:16;3.38;;;2.30;;
60478;SDS011;46321;48.398;11.754;2023-07-16T03:37:41;2.70;;;2.25;;
60478;SDS011;46321;48.398;11.754;2023-07-16T03:40:16;3.53;;;2.33;;
60478;SDS011;46321;48.398;11.754;2023-07-16T03:42:43;2.75;;;2.10;;
60478;SDS011;46321;48.398;11.754;2023-07-16T03:45:09;4.25;;;1.90;;
60478;SDS011;46321;48.398;11.754;2023-07-16T03:47:35;2.83;;;2.17;;
60478;SDS011;46321;48.398;11.754;2023-07-16T03:50:01;2.08;;;1.80;;
60478;SDS011;46321;48.398;11.754;2023-07-16T03:52:26;3.67;;;2.30;;
60478;SDS011;46321;48.398;11.754;2023-07-16T03:54:52;3.40;;;1.93;;
60478;SDS011;46321;48.398;11.754;2023-07-16T03:57:17;2.92;;;2.00;;
60478;SDS011;46321;48.398;11.754;2023-07-16T03:59:42;2.20;;;1.88;;
60478;SDS011;46321;48.398;11.754;2023-07-16T04:02:08;2.50;;;1.90;;
60478;SDS011;46321;48.398;11.754;2023-07-16T04:04:33;2.30;;;1.85;;
60478;SDS011;46321;48.398;11.754;2023-07-16T04:06:59;2.00;;;1.70;;
60478;SDS011;46321;48.398;11.754;2023-07-16T04:09:24;2.25;;;1.90;;
60478;SDS011;46321;48.398;11.754;2023-07-16T04:11:50;3.88;;;2.10;;
60478;SDS011;46321;48.398;11.754;2023-07-16T04:14:15;4.03;;;2.10;;
60478;SDS011;46321;48.398;11.754;2023-07-16T04:16:40;3.25;;;2.03;;
60478;SDS011;46321;48.398;11.754;2023-07-16T04:19:05;2.43;;;2.00;;
60478;SDS011;46321;48.398;11.754;2023-07-16T04:21:32;3.08;;;2.20;;
60478;SDS011;46321;48.398;11.754;2023-07-16T04:23:57;2.70;;;2.30;;
60478;SDS011;46321;48.398;11.754;2023-07-16T04:26:22;4.97;;;2.40;;
60478;SDS011;46321;48.398;11.754;2023-07-16T04:28:48;3.50;;;2.17;;
60478;SDS011;46321;48.398;11.754;2023-07-16T04:31:14;3.23;;;2.33;;
60478;SDS011;46321;48.398;11.754;2023-07-16T04:33:39;3.25;;;2.38;;
60478;SDS011;46321;48.398;11.754;2023-07-16T04:36:04;4.72;;;2.00;;
60478;SDS011;46321;48.398;11.754;2023-07-16T04:38:30;3.37;;;2.00;;
60478;SDS011;46321;48.398;11.754;2023-07-16T04:40:55;3.35;;;2.33;;
60478;SDS011;46321;48.398;11.754;2023-07-16T04:43:20;3.10;;;2.00;;
60478;SDS011;46321;48.398;11.754;2023-07-16T04:45:45;3.00;;;2.30;;
60478;SDS011;46321;48.398;11.754;2023-07-16T04:48:11;2.88;;;2.13;;
60478;SDS011;46321;48.398;11.754;2023-07-16T04:50:38;3.30;;;1.98;;
60478;SDS011;46321;48.398;11.754;2023-07-16T04:53:04;2.85;;;1.98;;
60478;SDS011;46321;48.398;11.754;2023-07-16T04:55:34;2.20;;;1.67;;
60478;SDS011;46321;48.398;11.754;2023-07-16T04:58:00;2.88;;;2.00;;
60478;SDS011;46321;48.398;11.754;2023-07-16T05:00:25;2.73;;;1.93;;
60478;SDS011;46321;48.398;11.754;2023-07-16T05:02:50;5.10;;;1.73;;
60478;SDS011;46321;48.398;11.754;2023-07-16T05:05:16;5.68;;;2.13;;
60478;SDS011;46321;48.398;11.754;2023-07-16T05:07:41;3.40;;;2.20;;
60478;SDS011;46321;48.398;11.754;2023-07-16T05:10:06;2.85;;;1.90;;
60478;SDS011;46321;48.398;11.754;2023-07-16T05:12:32;3.25;;;1.90;;
60478;SDS011;46321;48.398;11.754;2023-07-16T05:14:57;3.30;;;1.67;;
60478;SDS011;46321;48.398;11.754;2023-07-16T05:17:23;2.50;;;2.00;;
60478;SDS011;46321;48.398;11.754;2023-07-16T05:19:48;3.22;;;2.15;;
60478;SDS011;46321;48.398;11.754;2023-07-16T05:22:13;4.07;;;1.60;;
60478;SDS011;46321;48.398;11.754;2023-07-16T05:24:39;4.55;;;2.08;;
60478;SDS011;46321;48.398;11.754;2023-07-16T05:27:04;2.97;;;1.67;;
60478;SDS011;46321;48.398;11.754;2023-07-16T05:29:30;2.15;;;1.58;;
60478;SDS011;46321;48.398;11.754;2023-07-16T05:31:55;2.67;;;1.80;;
60478;SDS011;46321;48.398;11.754;2023-07-16T05:34:20;3.33;;;1.60;;
60478;SDS011;46321;48.398;11.754;2023-07-16T05:36:46;3.53;;;1.70;;
60478;SDS011;46321;48.398;11.754;2023-07-16T05:39:11;1.77;;;1.67;;
60478;SDS011;46321;48.398;11.754;2023-07-16T05:41:38;2.67;;;1.70;;
60478;SDS011;46321;48.398;11.754;2023-07-16T05:44:04;2.80;;;1.60;;
60478;SDS011;46321;48.398;11.754;2023-07-16T05:46:30;2.30;;;1.48;;
60478;SDS011;46321;48.398;11.754;2023-07-16T05:48:55;2.37;;;1.60;;
60478;SDS011;46321;48.398;11.754;2023-07-16T05:51:20;2.33;;;1.70;;
60478;SDS011;46321;48.398;11.754;2023-07-16T05:53:45;3.65;;;1.80;;
60478;SDS011;46321;48.398;11.754;2023-07-16T05:56:11;1.93;;;1.43;;
60478;SDS011;46321;48.398;11.754;2023-07-16T05:58:36;2.20;;;1.53;;
60478;SDS011;46321;48.398;11.754;2023-07-16T06:01:01;2.50;;;1.60;;
60478;SDS011;46321;48.398;11.754;2023-07-16T06:03:26;2.53;;;1.53;;
60478;SDS011;46321;48.398;11.754;2023-07-16T06:05:52;1.63;;;1.45;;
60478;SDS011;46321;48.398;11.754;2023-07-16T06:08:17;2.38;;;1.80;;
60478;SDS011;46321;48.398;11.754;2023-07-16T06:10:42;9.53;;;6.10;;
60478;SDS011;46321;48.398;11.754;2023-07-16T06:13:07;5.30;;;3.20;;
60478;SDS011;46321;48.398;11.754;2023-07-16T06:15:33;3.00;;;1.95;;
60478;SDS011;46321;48.398;11.754;2023-07-16T06:17:58;2.37;;;1.70;;
60478;SDS011;46321;48.398;11.754;2023-07-16T06:20:23;3.77;;;2.23;;
60478;SDS011;46321;48.398;11.754;2023-07-16T06:22:49;3.83;;;1.75;;
60478;SDS011;46321;48.398;11.754;2023-07-16T06:25:14;4.07;;;1.40;;
60478;SDS011;46321;48.398;11.754;2023-07-16T06:27:39;3.42;;;1.83;;
60478;SDS011;46321;48.398;11.754;2023-07-16T06:30:05;1.77;;;1.43;;
60478;SDS011;46321;48.398;11.754;2023-07-16T06:32:32;2.03;;;1.40;;
60478;SDS011;46321;48.398;11.754;2023-07-16T06:34:57;4.22;;;1.70;;
60478;SDS011;46321;48.398;11.754;2023-07-16T06:37:23;2.30;;;1.47;;
60478;SDS011;46321;48.398;11.754;2023-07-16T06:39:49;2.97;;;1.55;;
60478;SDS011;46321;48.398;11.754;2023-07-16T06:42:14;2.72;;;1.50;;
60478;SDS011;46321;48.398;11.754;2023-07-16T06:44:39;2.07;;;1.50;;
60478;SDS011;46321;48.398;11.754;2023-07-16T06:47:05;3.00;;;1.75;;
60478;SDS011;46321;48.398;11.754;2023-07-16T06:49:30;4.82;;;1.35;;
60478;SDS011;46321;48.398;11.754;2023-07-16T06:51:56;2.65;;;1.60;;
60478;SDS011;46321;48.398;11.754;2023-07-16T06:54:21;3.87;;;1.53;;
60478;SDS011;46321;48.398;11.754;2023-07-16T06:56:46;3.15;;;1.67;;
60478;SDS011;46321;48.398;11.754;2023-07-16T06:59:12;3.63;;;1.90;;
60478;SDS011;46321;48.398;11.754;2023-07-16T07:01:37;5.05;;;2.50;;
60478;SDS011;46321;48.398;11.754;2023-07-16T07:04:02;4.80;;;2.22;;
60478;SDS011;46321;48.398;11.754;2023-07-16T07:06:28;4.55;;;2.88;;
60478;SDS011;46321;48.398;11.754;2023-07-16T07:08:53;8.63;;;4.03;;
60478;SDS011;46321;48.398;11.754;2023-07-16T07:11:18;5.65;;;2.60;;
60478;SDS011;46321;48.398;11.754;2023-07-16T07:13:43;4.88;;;2.72;;
60478;SDS011;46321;48.398;11.754;2023-07-16T07:16:09;4.20;;;1.67;;
60478;SDS011;46321;48.398;11.754;2023-07-16T07:18:34;3.22;;;1.90;;
60478;SDS011;46321;48.398;11.754;2023-07-16T07:21:00;3.78;;;2.00;;
60478;SDS011;46321;48.398;11.754;2023-07-16T07:23:25;2.80;;;1.98;;
60478;SDS011;46321;48.398;11.754;2023-07-16T07:25:50;2.27;;;1.63;;
60478;SDS011;46321;48.398;11.754;2023-07-16T07:28:16;3.25;;;1.55;;
60478;SDS011;46321;48.398;11.754;2023-07-16T07:30:41;4.75;;;2.08;;
60478;SDS011;46321;48.398;11.754;2023-07-16T07:33:07;2.90;;;1.70;;
60478;SDS011;46321;48.398;11.754;2023-07-16T07:35:32;5.05;;;2.55;;
60478;SDS011;46321;48.398;11.754;2023-07-16T07:37:57;7.60;;;4.70;;
60478;SDS011;46321;48.398;11.754;2023-07-16T07:40:22;2.40;;;1.40;;
60478;SDS011;46321;48.398;11.754;2023-07-16T07:42:48;5.60;;;2.30;;
60478;SDS011;46321;48.398;11.754;2023-07-16T07:45:13;4.03;;;1.63;;
60478;SDS011;46321;48.398;11.754;2023-07-16T07:47:38;2.63;;;1.93;;
60478;SDS011;46321;48.398;11.754;2023-07-16T07:50:03;2.60;;;2.20;;
60478;SDS011;46321;48.398;11.754;2023-07-16T07:52:29;3.95;;;2.13;;
60478;SDS011;46321;48.398;11.754;2023-07-16T07:54:54;2.47;;;1.52;;
60478;SDS011;46321;48.398;11.754;2023-07-16T07:57:20;2.23;;;1.80;;
60478;SDS011;46321;48.398;11.754;2023-07-16T07:59:45;2.47;;;1.85;;
60478;SDS011;46321;48.398;11.754;2023-07-16T08:02:10;2.50;;;1.55;;
60478;SDS011;46321;48.398;11.754;2023-07-16T08:04:36;2.60;;;1.67;;
60478;SDS011;46321;48.398;11.754;2023-07-16T08:07:01;2.33;;;1.50;;
60478;SDS011;46321;48.398;11.754;2023-07-16T08:09:26;2.20;;;1.58;;
60478;SDS011;46321;48.398;11.754;2023-07-16T08:11:52;3.08;;;1.65;;
60478;SDS011;46321;48.398;11.754;2023-07-16T08:14:17;3.60;;;1.70;;
60478;SDS011;46321;48.398;11.754;2023-07-16T08:16:42;3.27;;;2.17;;
60478;SDS011;46321;48.398;11.754;2023-07-16T08:19:08;2.97;;;1.70;;
60478;SDS011;46321;48.398;11.754;2023-07-16T08:21:34;8.07;;;2.15;;
60478;SDS011;46321;48.398;11.754;2023-07-16T08:24:00;2.17;;;1.73;;
60478;SDS011;46321;48.398;11.754;2023-07-16T08:26:26;3.40;;;1.80;;
60478;SDS011;46321;48.398;11.754;2023-07-16T08:28:51;2.73;;;1.87;;
60478;SDS011;46321;48.398;11.754;2023-07-16T08:31:17;3.10;;;1.75;;
60478;SDS011;46321;48.398;11.754;2023-07-16T08:33:42;4.23;;;1.83;;
60478;SDS011;46321;48.398;11.754;2023-07-16T08:36:09;2.90;;;1.73;;
60478;SDS011;46321;48.398;11.754;2023-07-16T08:38:35;3.03;;;2.22;;
60478;SDS011;46321;48.398;11.754;2023-07-16T08:41:00;6.30;;;2.97;;
60478;SDS011;46321;48.398;11.754;2023-07-16T08:43:25;3.65;;;1.58;;
60478;SDS011;46321;48.398;11.754;2023-07-16T08:45:53;2.33;;;1.80;;
60478;SDS011;46321;48.398;11.754;2023-07-16T08:48:19;3.50;;;1.85;;
60478;SDS011;46321;48.398;11.754;2023-07-16T08:50:46;3.47;;;2.30;;
60478;SDS011;46321;48.398;11.754;2023-07-16T08:53:12;6.78;;;2.10;;
60478;SDS011;46321;48.398;11.754;2023-07-16T08:55:41;3.63;;;2.80;;
60478;SDS011;46321;48.398;11.754;2023-07-16T08:58:08;2.95;;;2.10;;
60478;SDS011;46321;48.398;11.754;2023-07-16T09:00:34;3.92;;;1.98;;
60478;SDS011;46321;48.398;11.754;2023-07-16T09:03:00;3.13;;;1.60;;
60478;SDS011;46321;48.398;11.754;2023-07-16T09:05:26;4.07;;;2.10;;
60478;SDS011;46321;48.398;11.754;2023-07-16T09:07:53;4.25;;;1.95;;
60478;SDS011;46321;48.398;11.754;2023-07-16T09:10:18;2.33;;;1.80;;
60478;SDS011;46321;48.398;11.754;2023-07-16T09:12:44;3.80;;;2.42;;
60478;SDS011;46321;48.398;11.754;2023-07-16T09:15:11;3.05;;;2.25;;
60478;SDS011;46321;48.398;11.754;2023-07-16T09:17:41;2.17;;;1.60;;
60478;SDS011;46321;48.398;11.754;2023-07-16T09:20:06;3.87;;;1.70;;
60478;SDS011;46321;48.398;11.754;2023-07-16T09:22:33;3.15;;;1.83;;
60478;SDS011;46321;48.398;11.754;2023-07-16T09:25:02;2.97;;;1.90;;
60478;SDS011;46321;48.398;11.754;2023-07-16T09:27:28;2.60;;;2.10;;
60478;SDS011;46321;48.398;11.754;2023-07-16T09:29:54;3.85;;;1.98;;
60478;SDS011;46321;48.398;11.754;2023-07-16T09:32:19;3.17;;;1.47;;
60478;SDS011;46321;48.398;11.754;2023-07-16T09:34:45;1.95;;;1.70;;
60478;SDS011;46321;48.398;11.754;2023-07-16T09:37:15;1.85;;;1.65;;
60478;SDS011;46321;48.398;11.754;2023-07-16T09:39:43;2.20;;;1.55;;
60478;SDS011;46321;48.398;11.754;2023-07-16T09:42:11;3.55;;;1.88;;
60478;SDS011;46321;48.398;11.754;2023-07-16T09:44:37;1.85;;;1.60;;
60478;SDS011;46321;48.398;11.754;2023-07-16T09:47:02;1.40;;;1.30;;
60478;SDS011;46321;48.398;11.754;2023-07-16T09:49:28;1.80;;;1.50;;
60478;SDS011;46321;48.398;11.754;2023-07-16T09:51:56;2.72;;;1.60;;
60478;SDS011;46321;48.398;11.754;2023-07-16T09:54:23;6.70;;;1.90;;
60478;SDS011;46321;48.398;11.754;2023-07-16T09:56:50;1.90;;;1.60;;
60478;SDS011;46321;48.398;11.754;2023-07-16T09:59:21;2.05;;;1.80;;
60478;SDS011;46321;48.398;11.754;2023-07-16T10:01:49;3.40;;;2.13;;
60478;SDS011;46321;48.398;11.754;2023-07-16T10:04:16;1.88;;;1.67;;
60478;SDS011;46321;48.398;11.754;2023-07-16T10:09:30;2.58;;;1.90;;
60478;SDS011;46321;48.398;11.754;2023-07-16T10:12:06;4.75;;;3.00;;
60478;SDS011;46321;48.398;11.754;2023-07-16T10:14:43;3.17;;;2.00;;
60478;SDS011;46321;48.398;11.754;2023-07-16T10:17:15;4.82;;;3.00;;
60478;SDS011;46321;48.398;11.754;2023-07-16T10:19:55;2.55;;;1.75;;
60478;SDS011;46321;48.398;11.754;2023-07-16T10:22:31;5.15;;;2.20;;
60478;SDS011;46321;48.398;11.754;2023-07-16T10:25:01;2.45;;;1.83;;
60478;SDS011;46321;48.398;11.754;2023-07-16T10:27:33;2.40;;;1.90;;
60478;SDS011;46321;48.398;11.754;2023-07-16T10:29:59;14.98;;;9.52;;
60478;SDS011;46321;48.398;11.754;2023-07-16T10:32:28;2.63;;;2.00;;
60478;SDS011;46321;48.398;11.754;2023-07-16T10:34:54;2.10;;;1.85;;
60478;SDS011;46321;48.398;11.754;2023-07-16T10:37:19;1.75;;;1.65;;
60478;SDS011;46321;48.398;11.754;2023-07-16T10:39:48;1.60;;;1.45;;
60478;SDS011;46321;48.398;11.754;2023-07-16T10:42:15;2.38;;;1.77;;
60478;SDS011;46321;48.398;11.754;2023-07-16T10:44:41;2.40;;;1.85;;
60478;SDS011;46321;48.398;11.754;2023-07-16T10:47:07;2.00;;;1.60;;
60478;SDS011;46321;48.398;11.754;2023-07-16T10:49:32;2.00;;;1.52;;
60478;SDS011;46321;48.398;11.754;2023-07-16T10:52:01;3.05;;;1.55;;
60478;SDS011;46321;48.398;11.754;2023-07-16T10:54:26;2.50;;;1.65;;
60478;SDS011;46321;48.398;11.754;2023-07-16T10:56:52;2.43;;;1.67;;
60478;SDS011;46321;48.398;11.754;2023-07-16T10:59:17;2.80;;;1.80;;
60478;SDS011;46321;48.398;11.754;2023-07-16T11:01:43;2.65;;;1.77;;
60478;SDS011;46321;48.398;11.754;2023-07-16T11:04:08;3.90;;;1.60;;
60478;SDS011;46321;48.398;11.754;2023-07-16T11:06:34;2.10;;;1.90;;
60478;SDS011;46321;48.398;11.754;2023-07-16T11:09:10;1.52;;;1.42;;
60478;SDS011;46321;48.398;11.754;2023-07-16T11:11:35;2.92;;;1.70;;
60478;SDS011;46321;48.398;11.754;2023-07-16T11:14:04;2.78;;;1.85;;
60478;SDS011;46321;48.398;11.754;2023-07-16T11:16:37;3.97;;;1.80;;
60478;SDS011;46321;48.398;11.754;2023-07-16T11:19:06;1.88;;;1.58;;
60478;SDS011;46321;48.398;11.754;2023-07-16T11:21:35;1.75;;;1.65;;
60478;SDS011;46321;48.398;11.754;2023-07-16T11:24:08;1.75;;;1.63;;
60478;SDS011;46321;48.398;11.754;2023-07-16T11:26:34;2.58;;;1.77;;
60478;SDS011;46321;48.398;11.754;2023-07-16T11:29:00;1.65;;;1.55;;
60478;SDS011;46321;48.398;11.754;2023-07-16T11:31:25;2.37;;;2.00;;
60478;SDS011;46321;48.398;11.754;2023-07-16T11:33:50;1.77;;;1.57;;
60478;SDS011;46321;48.398;11.754;2023-07-16T11:36:16;2.37;;;1.73;;
60478;SDS011;46321;48.398;11.754;2023-07-16T11:38:42;2.85;;;1.58;;
60478;SDS011;46321;48.398;11.754;2023-07-16T11:41:07;1.60;;;1.50;;
60478;SDS011;46321;48.398;11.754;2023-07-16T11:43:36;2.65;;;1.60;;
60478;SDS011;46321;48.398;11.754;2023-07-16T11:46:02;2.78;;;1.67;;
60478;SDS011;46321;48.398;11.754;2023-07-16T11:48:39;2.63;;;2.03;;
60478;SDS011;46321;48.398;11.754;2023-07-16T11:51:04;2.70;;;1.80;;
60478;SDS011;46321;48.398;11.754;2023-07-16T11:53:29;3.03;;;1.70;;
60478;SDS011;46321;48.398;11.754;2023-07-16T11:55:55;2.03;;;1.83;;
60478;SDS011;46321;48.398;11.754;2023-07-16T11:58:20;2.60;;;2.20;;
60478;SDS011;46321;48.398;11.754;2023-07-16T12:00:45;2.20;;;1.80;;
60478;SDS011;46321;48.398;11.754;2023-07-16T12:03:10;2.50;;;2.20;;
60478;SDS011;46321;48.398;11.754;2023-07-16T12:05:36;2.20;;;1.80;;
60478;SDS011;46321;48.398;11.754;2023-07-16T12:08:02;2.40;;;1.95;;
60478;SDS011;46321;48.398;11.754;2023-07-16T12:10:27;2.15;;;1.70;;
60478;SDS011;46321;48.398;11.754;2023-07-16T12:12:53;2.53;;;1.93;;
60478;SDS011;46321;48.398;11.754;2023-07-16T12:15:18;2.23;;;1.70;;
60478;SDS011;46321;48.398;11.754;2023-07-16T12:17:43;2.17;;;1.87;;
60478;SDS011;46321;48.398;11.754;2023-07-16T12:20:08;1.77;;;1.63;;
60478;SDS011;46321;48.398;11.754;2023-07-16T12:22:34;2.42;;;1.75;;
60478;SDS011;46321;48.398;11.754;2023-07-16T12:25:01;2.38;;;1.92;;
60478;SDS011;46321;48.398;11.754;2023-07-16T12:27:26;3.40;;;1.85;;
60478;SDS011;46321;48.398;11.754;2023-07-16T12:29:51;2.00;;;1.80;;
60478;SDS011;46321;48.398;11.754;2023-07-16T12:32:17;2.00;;;1.80;;
60478;SDS011;46321;48.398;11.754;2023-07-16T12:34:42;2.37;;;1.50;;
60478;SDS011;46321;48.398;11.754;2023-07-16T12:37:07;1.92;;;1.70;;
60478;SDS011;46321;48.398;11.754;2023-07-16T12:39:33;3.50;;;1.70;;
60478;SDS011;46321;48.398;11.754;2023-07-16T12:41:58;2.00;;;1.80;;
60478;SDS011;46321;48.398;11.754;2023-07-16T12:44:23;2.17;;;1.90;;
60478;SDS011;46321;48.398;11.754;2023-07-16T12:46:49;3.05;;;2.00;;
60478;SDS011;46321;48.398;11.754;2023-07-16T12:49:14;3.23;;;1.80;;
60478;SDS011;46321;48.398;11.754;2023-07-16T12:51:40;2.00;;;1.50;;
60478;SDS011;46321;48.398;11.754;2023-07-16T12:54:05;2.13;;;1.83;;
60478;SDS011;46321;48.398;11.754;2023-07-16T12:56:30;3.00;;;1.80;;
60478;SDS011;46321;48.398;11.754;2023-07-16T12:58:56;3.22;;;1.85;;
60478;SDS011;46321;48.398;11.754;2023-07-16T13:01:21;2.55;;;1.90;;
60478;SDS011;46321;48.398;11.754;2023-07-16T13:03:47;3.95;;;1.85;;
60478;SDS011;46321;48.398;11.754;2023-07-16T13:06:12;2.10;;;1.77;;
60478;SDS011;46321;48.398;11.754;2023-07-16T13:08:37;2.67;;;1.90;;
60478;SDS011;46321;48.398;11.754;2023-07-16T13:11:02;2.00;;;1.80;;
60478;SDS011;46321;48.398;11.754;2023-07-16T13:13:28;4.50;;;1.80;;
60478;SDS011;46321;48.398;11.754;2023-07-16T13:15:54;1.95;;;1.65;;
60478;SDS011;46321;48.398;11.754;2023-07-16T13:18:20;2.97;;;2.00;;
60478;SDS011;46321;48.398;11.754;2023-07-16T13:20:45;2.05;;;1.80;;
60478;SDS011;46321;48.398;11.754;2023-07-16T13:23:10;3.13;;;1.80;;
60478;SDS011;46321;48.398;11.754;2023-07-16T13:25:36;2.00;;;1.67;;
60478;SDS011;46321;48.398;11.754;2023-07-16T13:28:03;2.13;;;1.70;;
60478;SDS011;46321;48.398;11.754;2023-07-16T13:30:31;2.20;;;2.00;;
60478;SDS011;46321;48.398;11.754;2023-07-16T13:32:57;2.47;;;1.90;;
60478;SDS011;46321;48.398;11.754;2023-07-16T13:35:22;3.42;;;2.15;;
60478;SDS011;46321;48.398;11.754;2023-07-16T13:37:48;2.25;;;2.05;;
60478;SDS011;46321;48.398;11.754;2023-07-16T13:40:13;3.53;;;2.17;;
60478;SDS011;46321;48.398;11.754;2023-07-16T13:42:39;2.17;;;1.98;;
60478;SDS011;46321;48.398;11.754;2023-07-16T13:45:05;2.83;;;2.10;;
60478;SDS011;46321;48.398;11.754;2023-07-16T13:47:31;2.53;;;2.30;;
60478;SDS011;46321;48.398;11.754;2023-07-16T13:49:56;2.47;;;2.10;;
60478;SDS011;46321;48.398;11.754;2023-07-16T13:52:21;2.97;;;2.10;;
60478;SDS011;46321;48.398;11.754;2023-07-16T13:54:47;2.00;;;1.80;;
60478;SDS011;46321;48.398;11.754;2023-07-16T13:57:12;2.17;;;1.80;;
60478;SDS011;46321;48.398;11.754;2023-07-16T13:59:37;2.20;;;2.00;;
60478;SDS011;46321;48.398;11.754;2023-07-16T14:02:03;4.37;;;2.00;;
60478;SDS011;46321;48.398;11.754;2023-07-16T14:04:29;2.67;;;2.00;;
60478;SDS011;46321;48.398;11.754;2023-07-16T14:06:54;2.20;;;2.00;;
60478;SDS011;46321;48.398;11.754;2023-07-16T14:09:21;2.60;;;1.90;;
60478;SDS011;46321;48.398;11.754;2023-07-16T14:11:47;2.20;;;1.80;;
60478;SDS011;46321;48.398;11.754;2023-07-16T14:14:13;1.90;;;1.67;;
60478;SDS011;46321;48.398;11.754;2023-07-16T14:16:39;4.63;;;2.28;;
60478;SDS011;46321;48.398;11.754;2023-07-16T14:19:04;3.00;;;1.90;;
60478;SDS011;46321;48.398;11.754;2023-07-16T14:21:29;3.37;;;2.17;;
60478;SDS011;46321;48.398;11.754;2023-07-16T14:23:55;4.35;;;2.10;;
60478;SDS011;46321;48.398;11.754;2023-07-16T14:26:21;2.75;;;2.10;;
60478;SDS011;46321;48.398;11.754;2023-07-16T14:28:46;2.40;;;2.13;;
60478;SDS011;46321;48.398;11.754;2023-07-16T14:31:11;3.20;;;2.20;;